createdAt,value
2019-04-06T00:00:21.920Z,20.99
2019-04-06T00:01:21.907Z,21.05
2019-04-06T00:02:21.929Z,20.95
2019-04-06T00:03:21.738Z,20.99
2019-04-06T00:04:21.834Z,20.98
2019-04-06T00:05:21.820Z,20.98
2019-04-06T00:06:21.827Z,20.99
2019-04-06T00:07:21.834Z,21.02
2019-04-06T00:08:21.787Z,20.96
2019-04-06T00:09:21.770Z,20.99
2019-04-06T00:10:21.792Z,20.98
2019-04-06T00:11:21.741Z,20.99
2019-04-06T00:12:21.735Z,20.98
2019-04-06T00:13:21.767Z,21.02
2019-04-06T00:14:21.736Z,21.02
2019-04-06T00:15:21.712Z,20.98
2019-04-06T00:16:21.694Z,20.96
2019-04-06T00:17:21.688Z,20.99
2019-04-06T00:18:21.680Z,20.99
2019-04-06T00:19:21.708Z,21.01
2019-04-06T00:20:21.639Z,21.01
2019-04-06T00:21:21.642Z,20.98
2019-04-06T00:22:21.671Z,20.95
2019-04-06T00:23:21.620Z,20.96
2019-04-06T00:24:21.603Z,20.96
2019-04-06T00:25:21.540Z,20.99
2019-04-06T00:26:21.584Z,21.01
2019-04-06T00:27:21.475Z,20.96
2019-04-06T00:28:21.583Z,20.96
2019-04-06T00:29:21.543Z,20.93
2019-04-06T00:30:21.545Z,20.90
2019-04-06T00:31:21.583Z,20.96
2019-04-06T00:32:21.513Z,20.93
2019-04-06T00:33:21.552Z,20.96
2019-04-06T00:34:21.561Z,20.91
2019-04-06T00:35:21.468Z,20.93
2019-04-06T00:36:21.472Z,20.93
2019-04-06T00:37:21.520Z,20.90
2019-04-06T00:38:21.458Z,20.90
2019-04-06T00:39:21.493Z,20.91
2019-04-06T00:40:21.427Z,20.89
2019-04-06T00:41:21.396Z,20.93
2019-04-06T00:42:21.390Z,20.90
2019-04-06T00:43:21.423Z,20.89
2019-04-06T00:44:21.376Z,20.86
2019-04-06T00:45:21.352Z,20.89
2019-04-06T00:46:21.463Z,20.87
2019-04-06T00:47:21.345Z,20.90
2019-04-06T00:48:21.328Z,20.91
2019-04-06T00:49:21.361Z,20.90
2019-04-06T00:50:21.306Z,20.91
2019-04-06T00:51:21.293Z,20.93
2019-04-06T00:52:21.331Z,20.89
2019-04-06T00:53:21.272Z,20.89
2019-04-06T00:54:21.273Z,20.83
2019-04-06T00:55:21.286Z,20.96
2019-04-06T00:56:21.165Z,20.93
2019-04-06T00:57:21.230Z,20.86
2019-04-06T00:58:21.269Z,20.89
2019-04-06T00:59:21.188Z,20.95
2019-04-06T01:00:21.219Z,20.87
2019-04-06T01:01:21.298Z,20.87
2019-04-06T01:02:21.175Z,20.84
2019-04-06T01:03:21.162Z,20.84
2019-04-06T01:04:21.156Z,20.84
2019-04-06T01:05:21.142Z,20.83
2019-04-06T01:06:21.177Z,20.90
2019-04-06T01:07:23.194Z,20.84
2019-04-06T01:08:21.100Z,20.81
2019-04-06T01:09:21.087Z,20.81
2019-04-06T01:10:20.989Z,20.80
2019-04-06T01:11:20.995Z,20.81
2019-04-06T01:12:21.076Z,20.81
2019-04-06T01:13:21.126Z,20.89
2019-04-06T01:14:20.975Z,20.84
2019-04-06T01:15:21.026Z,20.80
2019-04-06T01:16:21.019Z,20.84
2019-04-06T01:17:21.002Z,20.83
2019-04-06T01:18:20.975Z,20.83
2019-04-06T01:19:21.029Z,20.87
2019-04-06T01:20:20.972Z,20.84
2019-04-06T01:21:20.963Z,20.81
2019-04-06T01:22:20.947Z,20.83
2019-04-06T01:23:20.944Z,20.87
2019-04-06T01:24:20.940Z,20.87
2019-04-06T01:25:20.873Z,20.80
2019-04-06T01:26:20.913Z,20.74
2019-04-06T01:27:20.892Z,20.83
2019-04-06T01:28:20.886Z,20.83
2019-04-06T01:29:20.876Z,20.80
2019-04-06T01:30:20.917Z,20.79
2019-04-06T01:31:20.881Z,20.77
2019-04-06T01:32:20.845Z,20.74
2019-04-06T01:33:20.818Z,20.79
2019-04-06T01:34:20.871Z,20.71
2019-04-06T01:35:20.861Z,20.76
2019-04-06T01:36:20.795Z,20.74
2019-04-06T01:37:20.838Z,20.80
2019-04-06T01:38:20.687Z,20.76
2019-04-06T01:39:20.761Z,20.79
2019-04-06T01:40:20.751Z,20.77
2019-04-06T01:41:20.726Z,20.77
2019-04-06T01:42:20.629Z,20.77
2019-04-06T01:43:20.670Z,20.76
2019-04-06T01:44:20.698Z,20.79
2019-04-06T01:45:20.699Z,20.71
2019-04-06T01:46:20.692Z,20.79
2019-04-06T01:47:20.671Z,20.80
2019-04-06T01:48:20.666Z,20.72
2019-04-06T01:49:20.705Z,20.71
2019-04-06T01:50:20.640Z,20.74
2019-04-06T01:51:20.641Z,20.74
2019-04-06T01:52:20.633Z,20.76
2019-04-06T01:53:20.613Z,20.84
2019-04-06T01:54:20.516Z,20.69
2019-04-06T01:55:20.633Z,20.74
2019-04-06T01:56:20.568Z,20.74
2019-04-06T01:57:20.565Z,20.74
2019-04-06T01:58:20.548Z,20.76
2019-04-06T01:59:20.456Z,20.72
2019-04-06T02:00:20.449Z,20.76
2019-04-06T02:01:20.592Z,20.74
2019-04-06T02:02:20.501Z,20.74
2019-04-06T02:03:20.508Z,20.83
2019-04-06T02:04:20.547Z,20.76
2019-04-06T02:05:20.470Z,20.69
2019-04-06T02:06:20.457Z,20.72
2019-04-06T02:07:20.490Z,20.77
2019-04-06T02:08:20.471Z,20.74
2019-04-06T02:09:20.434Z,20.77
2019-04-06T02:10:20.382Z,20.76
2019-04-06T02:11:20.431Z,20.81
2019-04-06T02:12:20.402Z,20.68
2019-04-06T02:13:20.504Z,20.69
2019-04-06T02:14:20.554Z,20.72
2019-04-06T02:15:20.348Z,20.76
2019-04-06T02:16:20.345Z,20.72
2019-04-06T02:17:20.338Z,20.72
2019-04-06T02:18:20.585Z,20.81
2019-04-06T02:19:20.368Z,20.72
2019-04-06T02:20:20.309Z,20.77
2019-04-06T02:21:20.352Z,20.74
2019-04-06T02:22:20.296Z,20.76
2019-04-06T02:23:20.192Z,20.69
2019-04-06T02:24:20.277Z,20.66
2019-04-06T02:25:20.305Z,20.76
2019-04-06T02:26:29.662Z,20.71
2019-04-06T02:27:21.151Z,20.72
2019-04-06T02:28:20.297Z,20.77
2019-04-06T02:29:20.214Z,20.69
2019-04-06T02:30:20.235Z,20.80
2019-04-06T02:31:20.236Z,20.71
2019-04-06T02:32:20.203Z,20.68
2019-04-06T02:33:20.108Z,20.66
2019-04-06T02:34:20.165Z,20.72
2019-04-06T02:35:20.283Z,20.71
2019-04-06T02:36:20.142Z,20.74
2019-04-06T02:37:20.177Z,20.72
2019-04-06T02:38:20.107Z,20.68
2019-04-06T02:39:20.112Z,20.76
2019-04-06T02:40:20.094Z,20.71
2019-04-06T02:41:20.068Z,20.68
2019-04-06T02:42:20.100Z,20.72
2019-04-06T02:43:20.118Z,20.62
2019-04-06T02:44:20.061Z,20.65
2019-04-06T02:45:20.257Z,20.69
2019-04-06T02:46:20.207Z,20.69
2019-04-06T02:47:20.012Z,20.64
2019-04-06T02:48:20.024Z,20.69
2019-04-06T02:49:20.247Z,20.66
2019-04-06T02:50:19.992Z,20.69
2019-04-06T02:51:19.970Z,20.65
2019-04-06T02:52:19.959Z,20.68
2019-04-06T02:53:19.973Z,20.71
2019-04-06T02:54:19.962Z,20.69
2019-04-06T02:55:20.022Z,20.68
2019-04-06T02:56:19.918Z,20.69
2019-04-06T02:57:19.912Z,20.64
2019-04-06T02:58:19.812Z,20.66
2019-04-06T02:59:19.827Z,20.69
2019-04-06T03:00:19.870Z,20.71
2019-04-06T03:01:19.902Z,20.76
2019-04-06T03:02:19.771Z,20.66
2019-04-06T03:03:19.744Z,20.72
2019-04-06T03:04:20.761Z,20.66
2019-04-06T03:05:19.815Z,20.65
2019-04-06T03:06:19.802Z,20.66
2019-04-06T03:07:19.894Z,20.61
2019-04-06T03:08:19.785Z,20.66
2019-04-06T03:09:19.923Z,20.61
2019-04-06T03:10:19.752Z,20.72
2019-04-06T03:11:19.755Z,20.71
2019-04-06T03:12:19.743Z,20.66
2019-04-06T03:13:19.778Z,20.69
2019-04-06T03:14:19.748Z,20.64
2019-04-06T03:15:19.712Z,20.62
2019-04-06T03:16:19.722Z,20.59
2019-04-06T03:17:19.679Z,20.66
2019-04-06T03:18:19.677Z,20.61
2019-04-06T03:19:19.779Z,20.58
2019-04-06T03:20:19.732Z,20.64
2019-04-06T03:21:19.642Z,20.62
2019-04-06T03:22:19.794Z,20.68
2019-04-06T03:23:19.657Z,20.65
2019-04-06T03:24:19.634Z,20.69
2019-04-06T03:25:19.681Z,20.59
2019-04-06T03:26:19.594Z,20.61
2019-04-06T03:27:19.590Z,20.59
2019-04-06T03:28:19.582Z,20.66
2019-04-06T03:29:19.576Z,20.65
2019-04-06T03:30:19.555Z,20.72
2019-04-06T03:31:23.642Z,20.68
2019-04-06T03:32:20.646Z,20.59
2019-04-06T03:33:19.502Z,20.64
2019-04-06T03:34:21.201Z,20.56
2019-04-06T03:35:19.493Z,20.61
2019-04-06T03:36:19.800Z,20.69
2019-04-06T03:37:19.496Z,20.65
2019-04-06T03:38:19.507Z,20.62
2019-04-06T03:39:19.444Z,20.64
2019-04-06T03:40:19.436Z,20.59
2019-04-06T03:41:19.668Z,20.54
2019-04-06T03:42:19.413Z,20.66
2019-04-06T03:43:19.445Z,20.59
2019-04-06T03:44:19.625Z,20.58
2019-04-06T03:45:19.373Z,20.59
2019-04-06T03:46:19.357Z,20.65
2019-04-06T03:47:19.365Z,20.59
2019-04-06T03:48:19.333Z,20.58
2019-04-06T03:49:19.389Z,20.56
2019-04-06T03:50:19.361Z,20.62
2019-04-06T03:51:19.328Z,20.72
2019-04-06T03:52:19.444Z,20.66
2019-04-06T03:53:19.280Z,20.59
2019-04-06T03:54:19.274Z,20.64
2019-04-06T03:55:19.316Z,20.58
2019-04-06T03:56:19.267Z,20.62
2019-04-06T03:57:19.249Z,20.64
2019-04-06T03:58:19.481Z,20.61
2019-04-06T03:59:19.224Z,20.59
2019-04-06T04:00:19.231Z,20.56
2019-04-06T04:01:19.264Z,20.69
2019-04-06T04:02:19.205Z,20.65
2019-04-06T04:03:19.163Z,20.59
2019-04-06T04:04:19.195Z,20.54
2019-04-06T04:05:19.177Z,20.59
2019-04-06T04:06:19.178Z,20.61
2019-04-06T04:07:19.202Z,20.58
2019-04-06T04:08:19.150Z,20.64
2019-04-06T04:09:19.138Z,20.66
2019-04-06T04:10:19.319Z,20.62
2019-04-06T04:11:19.084Z,20.69
2019-04-06T04:12:19.072Z,20.68
2019-04-06T04:13:19.110Z,20.65
2019-04-06T04:14:19.088Z,20.59
2019-04-06T04:15:19.210Z,20.68
2019-04-06T04:16:19.028Z,20.56
2019-04-06T04:17:19.041Z,20.61
2019-04-06T04:18:19.057Z,20.61
2019-04-06T04:19:19.058Z,20.58
2019-04-06T04:20:19.009Z,20.59
2019-04-06T04:21:19.020Z,20.58
2019-04-06T04:22:18.985Z,20.64
2019-04-06T04:23:18.974Z,20.53
2019-04-06T04:24:18.954Z,20.68
2019-04-06T04:25:18.994Z,20.64
2019-04-06T04:26:18.932Z,20.64
2019-04-06T04:27:28.379Z,20.62
2019-04-06T04:28:19.908Z,20.69
2019-04-06T04:29:18.931Z,20.62
2019-04-06T04:30:31.546Z,20.65
2019-04-06T04:31:19.915Z,20.68
2019-04-06T04:32:18.892Z,20.62
2019-04-06T04:33:18.753Z,20.66
2019-04-06T04:34:18.743Z,20.61
2019-04-06T04:35:19.028Z,20.66
2019-04-06T04:36:19.165Z,20.62
2019-04-06T04:37:18.845Z,20.62
2019-04-06T04:38:18.837Z,20.64
2019-04-06T04:39:18.801Z,20.66
2019-04-06T04:40:18.853Z,20.59
2019-04-06T04:41:18.780Z,20.68
2019-04-06T04:42:18.906Z,20.59
2019-04-06T04:43:18.793Z,20.62
2019-04-06T04:44:18.733Z,20.59
2019-04-06T04:45:18.771Z,20.61
2019-04-06T04:46:18.733Z,20.64
2019-04-06T04:47:18.714Z,20.66
2019-04-06T04:48:18.726Z,20.64
2019-04-06T04:49:18.726Z,20.69
2019-04-06T04:50:18.682Z,20.65
2019-04-06T04:51:18.875Z,20.58
2019-04-06T04:52:18.652Z,20.66
2019-04-06T04:53:18.564Z,20.71
2019-04-06T04:54:18.641Z,20.59
2019-04-06T04:55:18.668Z,20.65
2019-04-06T04:56:18.668Z,20.62
2019-04-06T04:57:18.504Z,20.59
2019-04-06T04:58:18.588Z,20.64
2019-04-06T04:59:18.573Z,20.68
2019-04-06T05:00:18.570Z,20.58
2019-04-06T05:01:18.534Z,20.66
2019-04-06T05:02:18.542Z,20.61
2019-04-06T05:03:18.572Z,20.65
2019-04-06T05:04:18.528Z,20.62
2019-04-06T05:05:18.509Z,20.61
2019-04-06T05:06:18.495Z,20.59
2019-04-06T05:07:18.522Z,20.68
2019-04-06T05:08:18.478Z,20.68
2019-04-06T05:09:18.555Z,20.66
2019-04-06T05:10:18.468Z,20.64
2019-04-06T05:11:18.535Z,20.59
2019-04-06T05:12:18.432Z,20.59
2019-04-06T05:13:18.464Z,20.65
2019-04-06T05:14:18.448Z,20.65
2019-04-06T05:15:18.391Z,20.64
2019-04-06T05:16:19.288Z,20.61
2019-04-06T05:17:18.371Z,20.72
2019-04-06T05:18:18.362Z,20.68
2019-04-06T05:19:18.397Z,20.64
2019-04-06T05:20:18.341Z,20.71
2019-04-06T05:21:18.447Z,20.61
2019-04-06T05:22:18.315Z,20.59
2019-04-06T05:23:18.301Z,20.59
2019-04-06T05:24:18.297Z,20.58
2019-04-06T05:25:18.320Z,20.59
2019-04-06T05:26:18.281Z,20.66
2019-04-06T05:27:18.266Z,20.66
2019-04-06T05:28:18.270Z,20.72
2019-04-06T05:29:18.233Z,20.62
2019-04-06T05:30:18.254Z,20.69
2019-04-06T05:31:18.312Z,20.69
2019-04-06T05:32:18.337Z,20.65
2019-04-06T05:33:18.205Z,20.69
2019-04-06T05:34:18.209Z,20.71
2019-04-06T05:35:18.162Z,20.65
2019-04-06T05:36:18.058Z,20.71
2019-04-06T05:37:18.217Z,20.69
2019-04-06T05:38:18.028Z,20.65
2019-04-06T05:39:18.039Z,20.69
2019-04-06T05:40:18.001Z,20.66
2019-04-06T05:41:17.998Z,20.80
2019-04-06T05:42:18.100Z,20.69
2019-04-06T05:43:18.132Z,20.76
2019-04-06T05:44:18.152Z,20.62
2019-04-06T05:45:18.161Z,20.77
2019-04-06T05:46:18.076Z,20.76
2019-04-06T05:47:17.953Z,20.74
2019-04-06T05:48:18.017Z,20.72
2019-04-06T05:49:18.028Z,20.72
2019-04-06T05:50:17.903Z,20.69
2019-04-06T05:51:18.000Z,20.71
2019-04-06T05:52:17.989Z,20.76
2019-04-06T05:53:17.988Z,20.72
2019-04-06T05:54:17.968Z,20.69
2019-04-06T05:55:18.355Z,20.81
2019-04-06T05:56:17.950Z,20.76
2019-04-06T05:57:18.074Z,20.77
2019-04-06T05:58:17.919Z,20.79
2019-04-06T05:59:17.796Z,20.72
2019-04-06T06:00:18.854Z,20.69
2019-04-06T06:01:18.303Z,20.72
2019-04-06T06:02:17.940Z,20.68
2019-04-06T06:03:18.733Z,20.76
2019-04-06T06:04:17.747Z,20.76
2019-04-06T06:05:17.750Z,20.76
2019-04-06T06:06:17.757Z,20.76
2019-04-06T06:07:17.763Z,20.76
2019-04-06T06:08:17.723Z,20.80
2019-04-06T06:09:17.806Z,20.72
2019-04-06T06:10:17.670Z,20.72
2019-04-06T06:11:17.689Z,20.84
2019-04-06T06:12:17.666Z,20.79
2019-04-06T06:13:17.711Z,20.83
2019-04-06T06:14:17.674Z,20.79
2019-04-06T06:15:17.636Z,20.80
2019-04-06T06:16:17.615Z,20.80
2019-04-06T06:17:17.636Z,20.77
2019-04-06T06:18:26.485Z,20.80
2019-04-06T06:19:18.633Z,20.80
2019-04-06T06:20:17.583Z,20.89
2019-04-06T06:21:17.736Z,20.84
2019-04-06T06:22:17.562Z,20.89
2019-04-06T06:23:17.889Z,20.80
2019-04-06T06:24:17.652Z,20.90
2019-04-06T06:25:17.642Z,20.83
2019-04-06T06:26:17.617Z,20.91
2019-04-06T06:27:17.501Z,20.90
2019-04-06T06:28:17.488Z,20.84
2019-04-06T06:29:17.477Z,20.90
2019-04-06T06:30:17.588Z,20.91
2019-04-06T06:31:17.515Z,20.89
2019-04-06T06:32:17.447Z,20.90
2019-04-06T06:33:17.424Z,20.83
2019-04-06T06:34:17.418Z,20.95
2019-04-06T06:35:17.673Z,20.91
2019-04-06T06:36:17.386Z,20.93
2019-04-06T06:37:17.442Z,20.98
2019-04-06T06:38:17.384Z,20.95
2019-04-06T06:39:17.459Z,20.90
2019-04-06T06:40:17.348Z,20.96
2019-04-06T06:41:17.365Z,20.96
2019-04-06T06:42:17.331Z,20.98
2019-04-06T06:43:17.416Z,20.95
2019-04-06T06:44:17.347Z,20.98
2019-04-06T06:45:17.305Z,21.04
2019-04-06T06:46:17.284Z,21.04
2019-04-06T06:47:17.291Z,21.01
2019-04-06T06:48:17.603Z,21.09
2019-04-06T06:49:17.796Z,21.08
2019-04-06T06:50:17.261Z,21.02
2019-04-06T06:51:17.247Z,21.19
2019-04-06T06:52:17.343Z,21.16
2019-04-06T06:53:17.208Z,21.05
2019-04-06T06:54:17.192Z,21.14
2019-04-06T06:55:17.242Z,21.01
2019-04-06T06:56:17.291Z,20.95
2019-04-06T06:57:17.339Z,20.96
2019-04-06T06:58:25.044Z,20.95
2019-04-06T06:59:18.160Z,20.95
2019-04-06T07:00:17.267Z,20.95
2019-04-06T07:01:17.260Z,20.96
2019-04-06T07:02:17.410Z,20.98
2019-04-06T07:03:17.093Z,21.01
2019-04-06T07:04:17.085Z,20.99
2019-04-06T07:05:17.087Z,21.02
2019-04-06T07:06:17.179Z,20.98
2019-04-06T07:07:17.538Z,21.08
2019-04-06T07:08:17.243Z,21.14
2019-04-06T07:09:17.120Z,21.11
2019-04-06T07:10:17.054Z,21.14
2019-04-06T07:11:17.028Z,21.21
2019-04-06T07:12:17.025Z,21.20
2019-04-06T07:13:17.053Z,21.20
2019-04-06T07:14:17.379Z,21.20
2019-04-06T07:15:17.009Z,21.26
2019-04-06T07:16:16.960Z,21.23
2019-04-06T07:17:16.966Z,21.19
2019-04-06T07:18:17.689Z,21.32
2019-04-06T07:19:16.977Z,21.36
2019-04-06T07:20:17.117Z,21.34
2019-04-06T07:21:17.275Z,21.30
2019-04-06T07:22:17.009Z,21.38
2019-04-06T07:23:16.908Z,21.42
2019-04-06T07:24:16.881Z,21.38
2019-04-06T07:25:16.915Z,21.36
2019-04-06T07:26:16.900Z,21.54
2019-04-06T07:27:16.867Z,21.42
2019-04-06T07:28:16.888Z,21.54
2019-04-06T07:29:16.910Z,21.42
2019-04-06T07:30:16.804Z,21.48
2019-04-06T07:31:16.936Z,21.50
2019-04-06T07:32:16.994Z,21.53
2019-04-06T07:33:16.788Z,21.60
2019-04-06T07:34:16.866Z,21.51
2019-04-06T07:35:16.848Z,21.57
2019-04-06T07:36:16.839Z,21.57
2019-04-06T07:37:16.869Z,21.57
2019-04-06T07:38:16.719Z,21.60
2019-04-06T07:39:16.842Z,21.60
2019-04-06T07:40:16.704Z,21.66
2019-04-06T07:41:16.705Z,21.59
2019-04-06T07:42:16.774Z,21.72
2019-04-06T07:43:16.726Z,21.69
2019-04-06T07:44:16.658Z,21.74
2019-04-06T07:45:16.630Z,21.71
2019-04-06T07:46:16.630Z,21.74
2019-04-06T07:47:17.238Z,21.75
2019-04-06T07:48:16.615Z,21.72
2019-04-06T07:49:17.021Z,21.74
2019-04-06T07:50:16.616Z,21.81
2019-04-06T07:51:16.569Z,21.69
2019-04-06T07:52:16.553Z,21.88
2019-04-06T07:53:16.556Z,21.79
2019-04-06T07:54:16.536Z,21.88
2019-04-06T07:55:16.566Z,21.90
2019-04-06T07:56:16.506Z,21.94
2019-04-06T07:57:16.515Z,21.95
2019-04-06T07:58:16.496Z,21.88
2019-04-06T07:59:16.501Z,21.85
2019-04-06T08:00:16.474Z,21.92
2019-04-06T08:01:16.503Z,21.97
2019-04-06T08:02:16.454Z,21.99
2019-04-06T08:03:16.442Z,21.97
2019-04-06T08:04:16.427Z,22.01
2019-04-06T08:05:16.554Z,22.04
2019-04-06T08:06:16.412Z,21.99
2019-04-06T08:07:16.768Z,21.98
2019-04-06T08:08:16.388Z,22.06
2019-04-06T08:09:16.690Z,21.98
2019-04-06T08:10:16.376Z,21.99
2019-04-06T08:11:16.368Z,21.99
2019-04-06T08:12:16.697Z,22.06
2019-04-06T08:13:16.368Z,22.01
2019-04-06T08:14:16.414Z,22.07
2019-04-06T08:15:16.454Z,22.10
2019-04-06T08:16:16.303Z,22.16
2019-04-06T08:17:16.302Z,22.17
2019-04-06T08:18:16.293Z,22.17
2019-04-06T08:19:16.418Z,22.16
2019-04-06T08:20:16.361Z,22.16
2019-04-06T08:21:16.345Z,22.16
2019-04-06T08:22:16.233Z,22.19
2019-04-06T08:23:16.275Z,22.12
2019-04-06T08:24:16.313Z,22.28
2019-04-06T08:25:16.346Z,22.19
2019-04-06T08:26:16.327Z,22.25
2019-04-06T08:27:16.285Z,22.29
2019-04-06T08:28:16.261Z,22.25
2019-04-06T08:29:16.251Z,22.32
2019-04-06T08:30:16.155Z,22.22
2019-04-06T08:31:16.212Z,22.32
2019-04-06T08:32:16.229Z,22.23
2019-04-06T08:33:16.298Z,22.37
2019-04-06T08:34:16.218Z,22.41
2019-04-06T08:35:25.139Z,22.39
2019-04-06T08:36:17.237Z,22.38
2019-04-06T08:37:16.167Z,22.34
2019-04-06T08:38:16.085Z,22.27
2019-04-06T08:39:16.192Z,22.38
2019-04-06T08:40:16.142Z,22.47
2019-04-06T08:41:16.182Z,22.46
2019-04-06T08:42:16.056Z,22.39
2019-04-06T08:43:16.102Z,22.39
2019-04-06T08:44:16.084Z,22.38
2019-04-06T08:45:15.987Z,22.46
2019-04-06T08:46:16.148Z,22.49
2019-04-06T08:47:16.163Z,22.53
2019-04-06T08:48:16.073Z,22.46
2019-04-06T08:49:16.036Z,22.54
2019-04-06T08:50:16.009Z,22.53
2019-04-06T08:51:15.908Z,22.54
2019-04-06T08:52:15.909Z,22.53
2019-04-06T08:53:15.990Z,22.54
2019-04-06T08:54:15.922Z,22.57
2019-04-06T08:55:15.875Z,22.62
2019-04-06T08:56:15.952Z,22.62
2019-04-06T08:57:15.959Z,22.64
2019-04-06T08:58:15.938Z,22.67
2019-04-06T08:59:15.980Z,22.71
2019-04-06T09:00:15.980Z,22.68
2019-04-06T09:01:15.903Z,22.82
2019-04-06T09:02:15.868Z,22.74
2019-04-06T09:03:15.884Z,22.75
2019-04-06T09:04:15.776Z,22.82
2019-04-06T09:05:15.856Z,22.67
2019-04-06T09:06:15.886Z,22.74
2019-04-06T09:07:15.934Z,22.78
2019-04-06T09:08:15.826Z,22.77
2019-04-06T09:09:15.824Z,22.77
2019-04-06T09:10:15.811Z,22.83
2019-04-06T09:11:15.799Z,22.77
2019-04-06T09:12:15.708Z,22.74
2019-04-06T09:13:15.773Z,22.80
2019-04-06T09:14:15.760Z,22.80
2019-04-06T09:15:15.759Z,22.86
2019-04-06T09:16:15.723Z,22.84
2019-04-06T09:17:15.730Z,22.86
2019-04-06T09:18:15.753Z,22.86
2019-04-06T09:19:15.703Z,22.90
2019-04-06T09:20:15.700Z,22.84
2019-04-06T09:21:15.691Z,22.83
2019-04-06T09:22:15.657Z,22.87
2019-04-06T09:23:15.652Z,22.86
2019-04-06T09:24:15.683Z,22.94
2019-04-06T09:25:15.783Z,22.94
2019-04-06T09:26:15.630Z,22.99
2019-04-06T09:27:15.615Z,22.97
2019-04-06T09:28:15.593Z,22.99
2019-04-06T09:29:23.086Z,23.05
2019-04-06T09:30:16.644Z,22.96
2019-04-06T09:31:15.573Z,23.05
2019-04-06T09:32:15.559Z,23.08
2019-04-06T09:33:15.560Z,22.99
2019-04-06T09:34:15.544Z,23.11
2019-04-06T09:35:15.524Z,23.07
2019-04-06T09:36:15.576Z,23.14
2019-04-06T09:37:15.658Z,23.09
2019-04-06T09:38:15.484Z,23.09
2019-04-06T09:39:15.456Z,23.11
2019-04-06T09:40:15.718Z,23.20
2019-04-06T09:41:15.441Z,23.17
2019-04-06T09:42:15.509Z,23.24
2019-04-06T09:43:15.434Z,23.26
2019-04-06T09:44:15.425Z,23.22
2019-04-06T09:45:15.392Z,23.24
2019-04-06T09:46:15.604Z,23.19
2019-04-06T09:47:15.379Z,23.24
2019-04-06T09:48:15.413Z,23.27
2019-04-06T09:49:15.355Z,23.29
2019-04-06T09:50:15.489Z,23.34
2019-04-06T09:51:15.346Z,23.39
2019-04-06T09:52:15.521Z,23.27
2019-04-06T09:53:15.327Z,23.38
2019-04-06T09:54:15.610Z,23.42
2019-04-06T09:55:15.278Z,23.40
2019-04-06T09:56:15.272Z,23.43
2019-04-06T09:57:15.276Z,23.39
2019-04-06T09:58:15.405Z,23.40
2019-04-06T09:59:15.500Z,23.50
2019-04-06T10:00:15.285Z,23.49
2019-04-06T10:01:15.239Z,23.47
2019-04-06T10:02:15.231Z,23.49
2019-04-06T10:03:15.275Z,23.57
2019-04-06T10:04:15.198Z,23.57
2019-04-06T10:05:15.390Z,23.58
2019-04-06T10:06:15.236Z,23.58
2019-04-06T10:07:15.171Z,23.65
2019-04-06T10:08:15.156Z,23.62
2019-04-06T10:09:15.140Z,23.65
2019-04-06T10:10:15.112Z,23.68
2019-04-06T10:11:15.102Z,23.67
2019-04-06T10:12:15.162Z,23.68
2019-04-06T10:13:15.317Z,23.71
2019-04-06T10:14:15.112Z,23.83
2019-04-06T10:15:15.083Z,23.83
2019-04-06T10:16:15.063Z,23.85
2019-04-06T10:17:15.067Z,23.89
2019-04-06T10:18:15.086Z,23.94
2019-04-06T10:19:15.027Z,23.98
2019-04-06T10:20:15.250Z,24.00
2019-04-06T10:21:15.016Z,24.10
2019-04-06T10:22:15.201Z,24.02
2019-04-06T10:23:14.981Z,24.14
2019-04-06T10:24:15.026Z,24.12
2019-04-06T10:25:14.967Z,24.14
2019-04-06T10:26:15.004Z,24.27
2019-04-06T10:27:15.146Z,24.20
2019-04-06T10:28:15.175Z,24.13
2019-04-06T10:29:14.931Z,24.14
2019-04-06T10:30:15.021Z,24.16
2019-04-06T10:31:14.916Z,24.23
2019-04-06T10:32:14.901Z,24.24
2019-04-06T10:33:14.900Z,24.24
2019-04-06T10:34:14.874Z,24.31
2019-04-06T10:35:14.894Z,24.24
2019-04-06T10:36:14.899Z,24.24
2019-04-06T10:37:14.836Z,24.23
2019-04-06T10:38:14.828Z,24.29
2019-04-06T10:39:14.852Z,24.22
2019-04-06T10:40:14.830Z,24.23
2019-04-06T10:41:14.816Z,24.16
2019-04-06T10:42:14.832Z,24.20
2019-04-06T10:43:14.790Z,24.22
2019-04-06T10:44:15.050Z,24.17
2019-04-06T10:45:14.752Z,24.19
2019-04-06T10:46:14.869Z,24.13
2019-04-06T10:47:14.759Z,24.14
2019-04-06T10:48:14.769Z,24.19
2019-04-06T10:49:14.691Z,24.14
2019-04-06T10:50:14.729Z,24.16
2019-04-06T10:51:14.688Z,24.14
2019-04-06T10:52:14.676Z,24.20
2019-04-06T10:53:14.666Z,24.14
2019-04-06T10:54:14.709Z,24.14
2019-04-06T10:55:14.649Z,24.14
2019-04-06T10:56:14.642Z,24.07
2019-04-06T10:57:14.629Z,24.13
2019-04-06T10:58:14.617Z,24.14
2019-04-06T10:59:14.599Z,24.14
2019-04-06T11:00:14.636Z,24.14
2019-04-06T11:01:14.883Z,24.23
2019-04-06T11:02:14.846Z,24.08
2019-04-06T11:03:14.589Z,24.10
2019-04-06T11:04:14.550Z,24.08
2019-04-06T11:05:14.536Z,24.19
2019-04-06T11:06:14.950Z,24.19
2019-04-06T11:07:14.521Z,24.07
2019-04-06T11:08:14.503Z,24.14
2019-04-06T11:09:14.532Z,24.10
2019-04-06T11:10:14.507Z,24.05
2019-04-06T11:11:17.015Z,24.04
2019-04-06T11:12:15.530Z,24.07
2019-04-06T11:13:14.530Z,24.05
2019-04-06T11:14:14.494Z,24.05
2019-04-06T11:15:14.415Z,24.12
2019-04-06T11:16:14.649Z,24.04
2019-04-06T11:17:14.434Z,24.07
2019-04-06T11:18:14.436Z,24.02
2019-04-06T11:19:14.392Z,24.04
2019-04-06T11:20:14.376Z,24.05
2019-04-06T11:21:14.426Z,24.04
2019-04-06T11:22:16.950Z,24.05
2019-04-06T11:23:14.344Z,24.08
2019-04-06T11:24:14.379Z,24.07
2019-04-06T11:25:14.322Z,24.14
2019-04-06T11:26:14.305Z,24.04
2019-04-06T11:27:14.314Z,24.04
2019-04-06T11:28:14.290Z,24.02
2019-04-06T11:29:14.284Z,24.07
2019-04-06T11:30:15.335Z,24.01
2019-04-06T11:31:14.273Z,24.02
2019-04-06T11:32:14.491Z,24.12
2019-04-06T11:33:14.223Z,24.02
2019-04-06T11:34:14.203Z,24.10
2019-04-06T11:35:14.194Z,24.05
2019-04-06T11:36:14.532Z,24.13
2019-04-06T11:37:14.161Z,24.02
2019-04-06T11:38:14.254Z,24.07
2019-04-06T11:39:14.172Z,24.05
2019-04-06T11:40:14.989Z,24.04
2019-04-06T11:41:14.386Z,24.08
2019-04-06T11:42:14.186Z,24.01
2019-04-06T11:43:14.118Z,24.05
2019-04-06T11:44:14.194Z,24.02
2019-04-06T11:45:14.300Z,24.04
2019-04-06T11:46:14.142Z,24.01
2019-04-06T11:47:14.090Z,24.07
2019-04-06T11:48:14.157Z,24.02
2019-04-06T11:49:14.029Z,23.98
2019-04-06T11:50:14.051Z,23.98
2019-04-06T11:51:14.190Z,24.04
2019-04-06T11:52:14.041Z,24.02
2019-04-06T11:53:14.004Z,24.02
2019-04-06T11:54:14.026Z,24.08
2019-04-06T11:55:13.976Z,24.04
2019-04-06T11:56:13.964Z,24.12
2019-04-06T11:57:14.268Z,24.07
2019-04-06T11:58:14.024Z,24.08
2019-04-06T11:59:13.919Z,23.97
2019-04-06T12:00:24.660Z,24.12
2019-04-06T12:01:14.900Z,24.05
2019-04-06T12:02:13.917Z,24.02
2019-04-06T12:03:13.892Z,24.08
2019-04-06T12:04:13.883Z,24.07
2019-04-06T12:05:13.906Z,24.13
2019-04-06T12:06:13.910Z,24.01
2019-04-06T12:07:13.856Z,24.08
2019-04-06T12:08:13.829Z,24.04
2019-04-06T12:09:13.867Z,24.00
2019-04-06T12:10:13.825Z,24.10
2019-04-06T12:11:14.092Z,24.10
2019-04-06T12:12:13.961Z,24.00
2019-04-06T12:13:13.789Z,23.98
2019-04-06T12:14:13.779Z,24.04
2019-04-06T12:15:13.903Z,24.00
2019-04-06T12:16:14.457Z,24.04
2019-04-06T12:17:13.730Z,23.97
2019-04-06T12:18:13.757Z,24.05
2019-04-06T12:19:13.714Z,23.98
2019-04-06T12:20:13.872Z,24.04
2019-04-06T12:21:13.895Z,24.05
2019-04-06T12:22:13.686Z,24.04
2019-04-06T12:23:13.673Z,24.02
2019-04-06T12:24:13.717Z,24.00
2019-04-06T12:25:13.653Z,24.05
2019-04-06T12:26:13.638Z,24.02
2019-04-06T12:27:13.626Z,24.07
2019-04-06T12:28:13.605Z,23.95
2019-04-06T12:29:16.392Z,24.02
2019-04-06T12:30:13.694Z,23.95
2019-04-06T12:31:13.566Z,23.94
2019-04-06T12:32:13.573Z,23.92
2019-04-06T12:33:13.788Z,24.02
2019-04-06T12:34:13.552Z,24.04
2019-04-06T12:35:13.565Z,24.04
2019-04-06T12:36:13.599Z,23.97
2019-04-06T12:37:13.547Z,23.95
2019-04-06T12:38:13.508Z,24.00
2019-04-06T12:39:13.505Z,24.07
2019-04-06T12:40:13.687Z,23.97
2019-04-06T12:41:13.507Z,23.98
2019-04-06T12:42:13.527Z,24.01
2019-04-06T12:43:13.569Z,24.07
2019-04-06T12:44:13.477Z,24.04
2019-04-06T12:45:13.429Z,24.00
2019-04-06T12:46:13.722Z,24.02
2019-04-06T12:47:13.479Z,23.98
2019-04-06T12:48:13.437Z,24.02
2019-04-06T12:49:13.398Z,24.00
2019-04-06T12:50:13.385Z,23.97
2019-04-06T12:51:13.346Z,23.97
2019-04-06T12:52:13.621Z,24.07